Time;durP1;ratioP1;P1;durP2;ratioP2;P2;SDS_P1;SDS_P2;PMS_P1;PMS_P2;Temp;Humidity;BMP_temperature;BMP_pressure;BME280_temperature;BME280_humidity;BME280_pressure;Samples;Min_cycle;Max_cycle;Signal;HPM_P1;HPM_P2
2023/08/11 00:02:25;;;;;;;3.20;2.90;;;;;;;;;;5055833;28;20683;-84
2023/08/11 00:04:52;;;;;;;4.77;2.90;;;;;;;;;;5057390;28;20251;-84
2023/08/11 00:07:21;;;;;;;4.13;3.10;;;;;;;;;;5056767;28;20237;-84
2023/08/11 00:09:48;;;;;;;3.20;2.90;;;;;;;;;;5057241;28;20210;-84
2023/08/11 00:12:15;;;;;;;3.00;2.70;;;;;;;;;;5056822;28;20244;-84
2023/08/11 00:14:42;;;;;;;3.90;3.10;;;;;;;;;;5057013;28;20206;-84
2023/08/11 00:17:09;;;;;;;4.20;3.30;;;;;;;;;;5056538;28;20237;-84
2023/08/11 00:19:37;;;;;;;4.77;2.57;;;;;;;;;;5056855;28;20210;-84
2023/08/11 00:22:06;;;;;;;3.63;3.03;;;;;;;;;;5056409;28;20240;-84
2023/08/11 00:24:35;;;;;;;3.63;2.60;;;;;;;;;;5056694;28;20232;-84
2023/08/11 00:27:02;;;;;;;3.20;2.90;;;;;;;;;;5056467;28;20320;-84
2023/08/11 00:29:30;;;;;;;3.77;3.00;;;;;;;;;;5056161;28;20217;-84
2023/08/11 00:31:57;;;;;;;3.07;2.63;;;;;;;;;;5055123;28;20233;-83
2023/08/11 00:34:24;;;;;;;3.63;2.80;;;;;;;;;;5055755;28;20591;-84
2023/08/11 00:36:54;;;;;;;5.17;3.00;;;;;;;;;;5056074;28;20233;-84
2023/08/11 00:39:22;;;;;;;4.83;3.07;;;;;;;;;;5056465;28;20746;-84
2023/08/11 00:41:50;;;;;;;3.20;2.80;;;;;;;;;;5056171;28;20230;-84
2023/08/11 00:44:17;;;;;;;3.17;2.87;;;;;;;;;;5056586;28;20213;-84
2023/08/11 00:46:45;;;;;;;3.50;3.20;;;;;;;;;;5055875;28;20446;-84
2023/08/11 00:49:13;;;;;;;3.83;2.97;;;;;;;;;;5056479;28;20339;-84
2023/08/11 00:51:41;;;;;;;4.50;3.13;;;;;;;;;;5055850;28;20234;-84
2023/08/11 00:54:09;;;;;;;4.13;3.20;;;;;;;;;;5036637;28;20215;-84
2023/08/11 00:56:36;;;;;;;3.27;2.97;;;;;;;;;;5036103;28;20258;-85
2023/08/11 00:59:05;;;;;;;4.90;3.00;;;;;;;;;;5036670;28;20284;-84
2023/08/11 01:01:32;;;;;;;3.50;3.03;;;;;;;;;;5035587;28;20234;-85
2023/08/11 01:03:59;;;;;;;3.50;3.20;;;;;;;;;;5034141;28;20211;-84
2023/08/11 01:06:31;;;;;;;7.33;3.03;;;;;;;;;;5049827;28;20703;-84
2023/08/11 01:09:01;;;;;;;4.10;3.20;;;;;;;;;;5016605;28;20560;-84
2023/08/11 01:11:30;;;;;;;3.27;2.80;;;;;;;;;;5015982;28;20231;-84
2023/08/11 01:14:02;;;;;;;4.97;3.10;;;;;;;;;;5016404;28;20238;-84
2023/08/11 01:16:31;;;;;;;4.23;2.70;;;;;;;;;;5015721;28;20285;-84
2023/08/11 01:18:58;;;;;;;3.70;3.40;;;;;;;;;;5016008;28;20227;-84
2023/08/11 01:21:26;;;;;;;3.50;3.20;;;;;;;;;;5015845;28;20231;-84
2023/08/11 01:23:55;;;;;;;3.50;3.20;;;;;;;;;;5016348;28;20219;-84
2023/08/11 01:26:22;;;;;;;3.47;3.00;;;;;;;;;;5015868;28;20231;-84
2023/08/11 01:28:53;;;;;;;3.73;2.97;;;;;;;;;;5016321;28;20217;-84
2023/08/11 01:31:20;;;;;;;6.70;3.30;;;;;;;;;;5015350;28;20238;-83
2023/08/11 01:33:47;;;;;;;3.87;2.97;;;;;;;;;;5015787;28;20208;-84
2023/08/11 01:36:14;;;;;;;3.87;3.47;;;;;;;;;;5014520;28;20207;-84
2023/08/11 01:38:42;;;;;;;4.70;3.10;;;;;;;;;;5014723;28;20227;-84
2023/08/11 01:41:10;;;;;;;4.30;3.03;;;;;;;;;;5013838;28;20219;-84
2023/08/11 01:43:39;;;;;;;3.40;3.10;;;;;;;;;;5014693;28;20612;-84
2023/08/11 01:46:06;;;;;;;4.13;2.93;;;;;;;;;;5014649;28;20211;-84
2023/08/11 01:48:34;;;;;;;6.27;3.63;;;;;;;;;;5015679;28;20203;-84
2023/08/11 01:51:02;;;;;;;5.93;4.00;;;;;;;;;;5019104;28;20214;-84
2023/08/11 01:53:29;;;;;;;3.27;2.97;;;;;;;;;;5015132;28;20685;-84
2023/08/11 01:55:57;;;;;;;3.90;3.23;;;;;;;;;;5015631;28;20213;-84
2023/08/11 01:58:25;;;;;;;3.43;3.13;;;;;;;;;;5014734;28;20231;-84
2023/08/11 02:00:52;;;;;;;3.83;3.00;;;;;;;;;;5015426;28;20206;-85
2023/08/11 02:03:19;;;;;;;4.00;3.40;;;;;;;;;;5014493;28;20239;-84
2023/08/11 02:05:46;;;;;;;4.50;2.90;;;;;;;;;;5015183;28;20210;-84
2023/08/11 02:08:17;;;;;;;4.10;3.03;;;;;;;;;;5014630;28;20250;-84
2023/08/11 02:10:46;;;;;;;3.70;2.50;;;;;;;;;;5015659;28;20226;-84
2023/08/11 02:13:13;;;;;;;5.17;3.40;;;;;;;;;;5014622;28;20319;-84
2023/08/11 02:15:41;;;;;;;3.33;3.03;;;;;;;;;;5015098;28;20212;-84
2023/08/11 02:18:09;;;;;;;3.77;3.07;;;;;;;;;;5014481;28;20231;-84
2023/08/11 02:20:36;;;;;;;3.50;3.20;;;;;;;;;;5014893;28;20684;-84
2023/08/11 02:23:03;;;;;;;3.50;3.20;;;;;;;;;;5014638;28;20237;-84
2023/08/11 02:25:30;;;;;;;3.97;3.27;;;;;;;;;;5027407;28;20207;-84
2023/08/11 02:27:57;;;;;;;4.57;3.40;;;;;;;;;;5050718;28;20245;-84
2023/08/11 02:30:28;;;;;;;5.80;3.53;;;;;;;;;;5054966;28;20256;-84
2023/08/11 02:32:57;;;;;;;6.03;3.60;;;;;;;;;;5054266;28;20291;-85
2023/08/11 02:35:24;;;;;;;3.77;3.43;;;;;;;;;;5054811;28;20213;-85
2023/08/11 02:37:51;;;;;;;4.27;3.73;;;;;;;;;;5054088;28;20250;-85
2023/08/11 02:40:19;;;;;;;5.03;3.70;;;;;;;;;;5054551;28;20664;-85
2023/08/11 02:42:51;;;;;;;4.97;3.60;;;;;;;;;;5053597;28;20237;-84
2023/08/11 02:45:18;;;;;;;3.60;3.30;;;;;;;;;;5053634;28;20220;-84
2023/08/11 02:47:46;;;;;;;3.80;3.50;;;;;;;;;;5052643;28;20246;-84
2023/08/11 02:50:14;;;;;;;12.17;3.37;;;;;;;;;;5053519;28;20234;-84
2023/08/11 02:52:41;;;;;;;3.77;3.47;;;;;;;;;;5053818;28;20245;-85
2023/08/11 02:55:09;;;;;;;4.00;3.30;;;;;;;;;;5054549;28;20214;-85
2023/08/11 02:57:36;;;;;;;6.07;3.97;;;;;;;;;;5053826;28;20786;-86
2023/08/11 03:00:08;;;;;;;4.43;3.40;;;;;;;;;;5054306;28;20265;-85
2023/08/11 03:02:35;;;;;;;4.00;3.60;;;;;;;;;;5054058;28;20295;-85
2023/08/11 03:05:03;;;;;;;4.40;3.23;;;;;;;;;;5053866;28;20613;-85
2023/08/11 03:07:32;;;;;;;3.60;3.30;;;;;;;;;;5054019;28;20237;-85
2023/08/11 03:09:59;;;;;;;5.83;3.60;;;;;;;;;;5054174;28;20228;-85
2023/08/11 03:12:28;;;;;;;5.43;3.70;;;;;;;;;;5053916;28;20256;-86
2023/08/11 03:14:55;;;;;;;3.57;3.27;;;;;;;;;;5054024;28;20296;-85
2023/08/11 03:17:22;;;;;;;4.57;3.13;;;;;;;;;;5054208;28;20244;-86
2023/08/11 03:19:49;;;;;;;4.03;3.40;;;;;;;;;;5053941;28;22092;-85
2023/08/11 03:22:17;;;;;;;7.57;3.83;;;;;;;;;;5053738;28;20704;-85
2023/08/11 03:24:46;;;;;;;3.80;3.50;;;;;;;;;;5054219;28;20222;-85
2023/08/11 03:27:13;;;;;;;4.10;3.47;;;;;;;;;;5053652;28;20241;-85
2023/08/11 03:29:40;;;;;;;4.50;3.67;;;;;;;;;;5054211;28;20272;-86
2023/08/11 03:32:07;;;;;;;5.37;3.40;;;;;;;;;;5053549;28;20237;-85
2023/08/11 03:34:34;;;;;;;4.20;3.23;;;;;;;;;;5054053;28;20210;-85
2023/08/11 03:37:01;;;;;;;7.20;3.03;;;;;;;;;;5055547;28;20230;-85
2023/08/11 03:39:28;;;;;;;5.13;3.40;;;;;;;;;;5058259;28;20236;-85
2023/08/11 03:41:56;;;;;;;5.17;3.80;;;;;;;;;;5057328;28;20257;-85
2023/08/11 03:44:24;;;;;;;8.27;3.60;;;;;;;;;;5057570;28;20213;-85
2023/08/11 03:46:51;;;;;;;5.87;3.77;;;;;;;;;;5056954;28;20237;-85
2023/08/11 03:49:18;;;;;;;5.40;3.40;;;;;;;;;;5056124;28;20198;-85
2023/08/11 03:51:45;;;;;;;6.13;3.33;;;;;;;;;;5056042;28;20238;-86
2023/08/11 03:54:12;;;;;;;5.43;3.17;;;;;;;;;;5056969;28;20218;-85
2023/08/11 03:56:39;;;;;;;5.23;3.33;;;;;;;;;;5057243;28;20253;-85
2023/08/11 03:59:08;;;;;;;8.17;3.60;;;;;;;;;;5057570;28;20233;-85
2023/08/11 04:01:35;;;;;;;6.43;3.53;;;;;;;;;;5057020;28;20730;-85
2023/08/11 04:04:02;;;;;;;3.70;3.40;;;;;;;;;;5058574;28;20210;-85
2023/08/11 04:06:32;;;;;;;3.67;3.10;;;;;;;;;;5057267;28;20234;-85
2023/08/11 04:08:59;;;;;;;4.43;3.20;;;;;;;;;;5057582;28;20191;-85
2023/08/11 04:11:26;;;;;;;3.33;3.03;;;;;;;;;;5056879;28;20291;-85
2023/08/11 04:13:54;;;;;;;4.50;3.20;;;;;;;;;;5057335;28;20206;-86
2023/08/11 04:16:22;;;;;;;5.60;2.90;;;;;;;;;;5056845;28;20230;-86
2023/08/11 04:18:49;;;;;;;5.90;3.17;;;;;;;;;;5057411;28;20222;-86
2023/08/11 04:21:17;;;;;;;4.00;3.60;;;;;;;;;;5056854;28;20245;-85
2023/08/11 04:23:44;;;;;;;4.33;3.93;;;;;;;;;;5057318;28;20267;-85
2023/08/11 04:26:11;;;;;;;4.07;3.00;;;;;;;;;;5056841;28;20228;-85
2023/08/11 04:28:41;;;;;;;5.27;3.10;;;;;;;;;;5057311;28;20233;-85
2023/08/11 04:31:09;;;;;;;7.30;3.40;;;;;;;;;;5057013;28;20555;-86
2023/08/11 04:33:37;;;;;;;6.13;3.07;;;;;;;;;;5056990;28;20248;-86
2023/08/11 04:36:05;;;;;;;8.43;4.50;;;;;;;;;;5056468;28;20198;-86
2023/08/11 04:38:31;;;;;;;4.73;3.17;;;;;;;;;;5058080;28;20206;-86
2023/08/11 04:40:58;;;;;;;4.33;3.40;;;;;;;;;;5057411;28;20278;-86
2023/08/11 04:43:25;;;;;;;4.73;3.57;;;;;;;;;;5056845;28;20189;-85
2023/08/11 04:45:54;;;;;;;5.73;3.30;;;;;;;;;;5057159;28;20685;-85
2023/08/11 04:48:21;;;;;;;8.10;3.93;;;;;;;;;;5056451;28;20233;-86
2023/08/11 04:50:51;;;;;;;4.93;3.50;;;;;;;;;;5055465;28;20564;-85
2023/08/11 04:53:18;;;;;;;5.87;3.40;;;;;;;;;;5054549;28;20299;-84
2023/08/11 04:55:45;;;;;;;5.10;3.90;;;;;;;;;;5055608;28;20194;-85
2023/08/11 04:58:13;;;;;;;5.97;3.30;;;;;;;;;;5056409;28;20245;-85
2023/08/11 05:00:40;;;;;;;5.37;3.53;;;;;;;;;;5056530;28;20618;-85
2023/08/11 05:03:07;;;;;;;4.23;3.60;;;;;;;;;;5056320;28;20238;-85
2023/08/11 05:05:35;;;;;;;9.60;4.00;;;;;;;;;;5052348;28;20230;-85
2023/08/11 05:08:03;;;;;;;5.00;3.63;;;;;;;;;;5055873;28;20707;-86
2023/08/11 05:10:30;;;;;;;8.00;3.83;;;;;;;;;;5057627;28;20226;-85
2023/08/11 05:12:58;;;;;;;4.93;3.97;;;;;;;;;;5055664;28;20246;-86
2023/08/11 05:15:25;;;;;;;7.67;4.27;;;;;;;;;;5056138;28;20208;-86
2023/08/11 05:17:53;;;;;;;4.97;4.47;;;;;;;;;;5055747;28;20311;-85
2023/08/11 05:20:21;;;;;;;6.47;4.10;;;;;;;;;;5054852;28;20198;-86
2023/08/11 05:22:48;;;;;;;4.63;4.23;;;;;;;;;;5053855;28;20715;-85
2023/08/11 05:25:17;;;;;;;8.87;4.53;;;;;;;;;;5056094;28;20210;-85
2023/08/11 05:27:45;;;;;;;5.23;4.73;;;;;;;;;;5055552;28;20256;-85
2023/08/11 05:30:13;;;;;;;11.23;5.40;;;;;;;;;;5056269;28;20256;-86
2023/08/11 05:32:40;;;;;;;6.43;4.67;;;;;;;;;;5055769;28;20726;-85
2023/08/11 05:35:08;;;;;;;7.80;5.73;;;;;;;;;;5055810;28;20206;-85
2023/08/11 05:37:36;;;;;;;8.53;5.00;;;;;;;;;;5055153;28;20316;-85
2023/08/11 05:40:04;;;;;;;6.97;4.77;;;;;;;;;;5047726;28;20276;-84
2023/08/11 05:42:32;;;;;;;8.60;5.23;;;;;;;;;;5045730;28;20241;-84
2023/08/11 05:44:59;;;;;;;7.10;5.07;;;;;;;;;;5047128;28;20186;-84
2023/08/11 05:47:26;;;;;;;5.77;5.13;;;;;;;;;;5043569;28;20495;-85
2023/08/11 05:49:53;;;;;;;7.10;5.57;;;;;;;;;;5045531;28;20228;-84
2023/08/11 05:52:20;;;;;;;5.73;5.20;;;;;;;;;;5046411;28;20227;-83
2023/08/11 05:54:47;;;;;;;6.40;5.37;;;;;;;;;;5045080;28;20206;-83
2023/08/11 05:57:14;;;;;;;6.70;6.17;;;;;;;;;;5045200;28;20231;-84
2023/08/11 05:59:43;;;;;;;8.03;5.37;;;;;;;;;;5049173;28;20198;-84
2023/08/11 06:02:10;;;;;;;6.47;5.20;;;;;;;;;;5045477;28;20230;-83
2023/08/11 06:04:38;;;;;;;7.73;5.80;;;;;;;;;;5046597;28;20230;-83
2023/08/11 06:07:05;;;;;;;8.97;5.30;;;;;;;;;;5043601;28;20230;-83
2023/08/11 06:09:32;;;;;;;7.27;5.43;;;;;;;;;;5044067;28;20218;-83
2023/08/11 06:11:59;;;;;;;6.90;5.67;;;;;;;;;;5046080;28;20577;-83
2023/08/11 06:14:27;;;;;;;7.40;5.57;;;;;;;;;;5043567;28;20198;-83
2023/08/11 06:16:55;;;;;;;8.73;5.67;;;;;;;;;;5043320;28;20229;-84
2023/08/11 06:19:24;;;;;;;6.13;5.47;;;;;;;;;;5044003;28;20567;-84
2023/08/11 06:21:51;;;;;;;6.80;6.10;;;;;;;;;;5043890;28;20225;-85
2023/08/11 06:24:20;;;;;;;6.87;6.10;;;;;;;;;;5045534;28;20206;-84
2023/08/11 06:26:48;;;;;;;9.80;6.40;;;;;;;;;;5043195;28;20229;-84
2023/08/11 06:29:15;;;;;;;10.57;6.33;;;;;;;;;;5042302;28;20222;-84
2023/08/11 06:31:42;;;;;;;8.87;5.77;;;;;;;;;;5039293;28;20611;-84
2023/08/11 06:34:11;;;;;;;8.03;5.67;;;;;;;;;;5045064;28;20206;-84
2023/08/11 06:36:38;;;;;;;10.77;5.80;;;;;;;;;;5043524;28;20222;-84
2023/08/11 06:39:06;;;;;;;7.60;5.90;;;;;;;;;;5045794;28;20201;-84
2023/08/11 06:41:33;;;;;;;8.63;5.13;;;;;;;;;;5042227;28;20253;-83
2023/08/11 06:44:00;;;;;;;5.83;5.03;;;;;;;;;;5046915;28;20205;-84
2023/08/11 06:46:27;;;;;;;8.07;5.10;;;;;;;;;;5042837;28;20245;-84
2023/08/11 06:48:54;;;;;;;6.07;5.27;;;;;;;;;;5042822;28;20192;-83
2023/08/11 06:51:22;;;;;;;7.77;4.87;;;;;;;;;;5041531;28;20241;-85
2023/08/11 06:53:49;;;;;;;7.77;5.80;;;;;;;;;;5053517;28;20869;-86
2023/08/11 06:56:17;;;;;;;8.20;4.50;;;;;;;;;;5052918;28;20240;-85
2023/08/11 06:58:45;;;;;;;4.60;4.20;;;;;;;;;;5050055;28;20209;-85
2023/08/11 07:01:17;;;;;;;5.20;4.57;;;;;;;;;;5052964;28;20206;-85
2023/08/11 07:03:45;;;;;;;6.23;4.23;;;;;;;;;;5055825;28;20217;-85
2023/08/11 07:06:13;;;;;;;7.30;4.07;;;;;;;;;;5043135;28;20679;-85
2023/08/11 07:08:42;;;;;;;4.17;3.63;;;;;;;;;;5045549;28;20273;-85
2023/08/11 07:11:09;;;;;;;4.68;4.20;;;;;;;;;;5055993;28;20817;-85
2023/08/11 07:13:36;;;;;;;6.40;3.80;;;;;;;;;;5058382;28;20217;-85
2023/08/11 07:16:03;;;;;;;4.07;3.60;;;;;;;;;;5058595;28;20240;-85
2023/08/11 07:18:30;;;;;;;8.65;3.90;;;;;;;;;;5057825;28;20256;-84
2023/08/11 07:20:57;;;;;;;4.15;3.42;;;;;;;;;;5057360;28;20229;-84
2023/08/11 07:23:25;;;;;;;3.90;3.60;;;;;;;;;;5056727;28;20215;-84
2023/08/11 07:25:53;;;;;;;4.95;3.80;;;;;;;;;;5059139;28;20210;-84
2023/08/11 07:28:20;;;;;;;3.10;2.88;;;;;;;;;;5057043;28;20621;-84
2023/08/11 07:30:47;;;;;;;3.25;2.97;;;;;;;;;;5054868;28;20248;-84
2023/08/11 07:33:14;;;;;;;3.30;3.00;;;;;;;;;;5050103;28;20234;-84
2023/08/11 07:35:41;;;;;;;3.35;3.05;;;;;;;;;;5057140;28;20206;-84
2023/08/11 07:38:08;;;;;;;3.05;2.80;;;;;;;;;;5059835;28;20229;-83
2023/08/11 07:40:35;;;;;;;6.00;2.80;;;;;;;;;;5056499;28;20198;-81
2023/08/11 07:43:04;;;;;;;3.60;3.22;;;;;;;;;;5054187;28;20234;-81
2023/08/11 07:45:32;;;;;;;4.30;3.25;;;;;;;;;;5047070;28;20206;-81
2023/08/11 07:48:00;;;;;;;5.38;2.95;;;;;;;;;;5054756;28;20241;-81
2023/08/11 07:50:27;;;;;;;3.53;3.00;;;;;;;;;;5055505;28;20252;-81
2023/08/11 07:52:54;;;;;;;3.75;3.08;;;;;;;;;;5048840;28;20233;-81
2023/08/11 07:55:21;;;;;;;3.42;2.90;;;;;;;;;;5050196;28;20222;-81
2023/08/11 07:57:48;;;;;;;4.00;3.00;;;;;;;;;;5053374;28;20230;-80
2023/08/11 08:00:19;;;;;;;5.05;3.08;;;;;;;;;;5053914;28;20202;-83
2023/08/11 08:02:46;;;;;;;4.22;3.03;;;;;;;;;;5054585;28;20305;-82
2023/08/11 08:05:13;;;;;;;5.10;3.13;;;;;;;;;;5053923;28;20571;-82
2023/08/11 08:07:40;;;;;;;6.43;3.25;;;;;;;;;;5050116;28;20236;-82
2023/08/11 08:10:09;;;;;;;4.05;3.10;;;;;;;;;;5051209;28;20226;-82
2023/08/11 08:12:36;;;;;;;6.60;2.90;;;;;;;;;;5055235;28;20264;-82
2023/08/11 08:15:04;;;;;;;3.50;2.85;;;;;;;;;;5058531;28;20210;-82
2023/08/11 08:17:32;;;;;;;5.47;2.42;;;;;;;;;;5046126;28;20236;-82
2023/08/11 08:20:00;;;;;;;3.15;2.85;;;;;;;;;;5056548;28;20198;-82
2023/08/11 08:22:27;;;;;;;4.85;2.70;;;;;;;;;;5053002;28;20226;-82
2023/08/11 08:24:54;;;;;;;3.92;2.80;;;;;;;;;;5050390;28;20206;-82
2023/08/11 08:27:24;;;;;;;4.40;3.08;;;;;;;;;;5049419;28;20719;-82
2023/08/11 08:29:51;;;;;;;3.10;2.80;;;;;;;;;;5049105;28;20550;-82
2023/08/11 08:32:18;;;;;;;3.17;2.75;;;;;;;;;;5051105;28;20225;-82
2023/08/11 08:34:48;;;;;;;4.40;2.53;;;;;;;;;;5052008;28;20212;-82
2023/08/11 08:37:15;;;;;;;2.92;2.50;;;;;;;;;;5053445;28;20700;-82
2023/08/11 08:39:43;;;;;;;3.92;2.63;;;;;;;;;;5053002;28;20612;-82
2023/08/11 08:42:11;;;;;;;3.33;2.53;;;;;;;;;;5045487;28;20237;-82
2023/08/11 08:44:38;;;;;;;3.25;2.60;;;;;;;;;;5048618;28;20291;-82
2023/08/11 08:47:06;;;;;;;3.63;2.78;;;;;;;;;;5053381;28;20234;-82
2023/08/11 08:49:33;;;;;;;5.43;3.00;;;;;;;;;;5054245;28;20205;-82
2023/08/11 08:52:01;;;;;;;2.97;2.20;;;;;;;;;;5047505;28;20511;-81
2023/08/11 08:54:29;;;;;;;3.03;2.65;;;;;;;;;;5052508;28;20218;-81
2023/08/11 08:56:56;;;;;;;5.85;2.72;;;;;;;;;;5053295;28;20250;-82
2023/08/11 08:59:24;;;;;;;5.68;2.47;;;;;;;;;;5053449;28;20718;-81
2023/08/11 09:01:52;;;;;;;2.65;2.45;;;;;;;;;;5054068;28;20323;-83
2023/08/11 09:04:20;;;;;;;4.30;2.42;;;;;;;;;;5056635;28;20220;-82
2023/08/11 09:06:47;;;;;;;4.03;2.50;;;;;;;;;;5057762;28;20716;-82
2023/08/11 09:09:16;;;;;;;2.67;2.38;;;;;;;;;;5057977;28;20198;-81
2023/08/11 09:11:43;;;;;;;2.72;2.40;;;;;;;;;;5058774;28;20236;-82
2023/08/11 09:14:11;;;;;;;3.35;2.40;;;;;;;;;;5056562;28;20212;-81
2023/08/11 09:16:39;;;;;;;3.60;2.33;;;;;;;;;;5059622;28;20997;-82
2023/08/11 09:19:07;;;;;;;2.72;2.50;;;;;;;;;;5059372;28;20209;-83
2023/08/11 09:21:35;;;;;;;2.83;2.50;;;;;;;;;;5057309;28;20230;-82
2023/08/11 09:24:02;;;;;;;2.47;2.28;;;;;;;;;;5067985;28;20202;-82
2023/08/11 09:26:31;;;;;;;2.25;2.00;;;;;;;;;;5065944;28;20607;-83
2023/08/11 09:28:59;;;;;;;3.10;1.83;;;;;;;;;;5060576;28;20293;-82
2023/08/11 09:31:26;;;;;;;4.88;2.30;;;;;;;;;;5061878;28;20666;-83
2023/08/11 09:33:54;;;;;;;2.80;2.60;;;;;;;;;;5053851;28;20202;-84
2023/08/11 09:36:21;;;;;;;3.30;2.20;;;;;;;;;;5053951;28;20230;-83
2023/08/11 09:38:49;;;;;;;2.78;2.20;;;;;;;;;;5053879;28;20214;-84
2023/08/11 09:41:16;;;;;;;3.10;1.88;;;;;;;;;;5053077;28;20210;-81
2023/08/11 09:43:48;;;;;;;2.50;2.30;;;;;;;;;;5052931;28;20206;-81
2023/08/11 09:46:15;;;;;;;2.42;2.10;;;;;;;;;;5051558;28;20214;-79
2023/08/11 09:48:42;;;;;;;3.15;2.10;;;;;;;;;;5053319;28;20209;-80
2023/08/11 09:51:11;;;;;;;1.92;1.83;;;;;;;;;;5052869;28;20226;-82
2023/08/11 09:53:38;;;;;;;2.67;1.98;;;;;;;;;;5049517;28;20218;-82
2023/08/11 09:56:06;;;;;;;3.40;1.88;;;;;;;;;;5048615;28;20202;-80
2023/08/11 09:58:36;;;;;;;2.35;2.15;;;;;;;;;;5051578;28;20213;-82
2023/08/11 10:01:05;;;;;;;2.47;2.28;;;;;;;;;;5042814;28;20209;-81
2023/08/11 10:03:36;;;;;;;3.03;2.20;;;;;;;;;;5050958;28;20634;-81
2023/08/11 10:06:04;;;;;;;2.63;2.28;;;;;;;;;;5051972;28;20439;-82
2023/08/11 10:08:32;;;;;;;2.33;2.08;;;;;;;;;;5051915;28;20210;-80
2023/08/11 10:11:00;;;;;;;2.22;2.05;;;;;;;;;;5050680;28;20795;-80
2023/08/11 10:13:29;;;;;;;3.40;1.88;;;;;;;;;;5050714;28;20208;-80
2023/08/11 10:15:57;;;;;;;2.90;1.80;;;;;;;;;;5051515;28;20248;-80
2023/08/11 10:18:25;;;;;;;3.58;1.90;;;;;;;;;;5052558;28;20230;-86
2023/08/11 10:20:52;;;;;;;2.40;2.20;;;;;;;;;;5054212;28;20608;-83
2023/08/11 10:23:20;;;;;;;4.32;2.00;;;;;;;;;;5051713;28;20230;-84
2023/08/11 10:25:47;;;;;;;2.70;2.13;;;;;;;;;;5052796;28;20225;-84
2023/08/11 10:28:15;;;;;;;5.07;2.50;;;;;;;;;;5052850;28;20234;-83
2023/08/11 10:30:42;;;;;;;2.28;2.10;;;;;;;;;;5052874;28;20226;-85
2023/08/11 10:33:10;;;;;;;1.73;1.63;;;;;;;;;;5052304;28;20234;-84
2023/08/11 10:35:51;;;;;;;1.73;1.60;;;;;;;;;;5048189;28;20198;-84
2023/08/11 10:38:26;;;;;;;2.20;2.00;;;;;;;;;;5052223;28;20229;-83
2023/08/11 10:40:58;;;;;;;2.05;1.88;;;;;;;;;;5053084;28;20209;-84
2023/08/11 10:43:30;;;;;;;3.50;2.00;;;;;;;;;;5051846;28;20222;-86
2023/08/11 10:45:57;;;;;;;2.47;2.13;;;;;;;;;;5051955;28;20285;-84
2023/08/11 10:48:25;;;;;;;1.98;1.80;;;;;;;;;;5053282;28;20730;-87
2023/08/11 10:50:54;;;;;;;1.70;1.60;;;;;;;;;;5053295;28;20230;-88
2023/08/11 10:53:22;;;;;;;2.85;1.80;;;;;;;;;;5052919;28;20233;-87
2023/08/11 10:56:02;;;;;;;3.55;2.00;;;;;;;;;;5048946;28;20226;-87
2023/08/11 10:58:31;;;;;;;3.55;1.98;;;;;;;;;;5052013;28;20233;-87
2023/08/11 11:00:58;;;;;;;2.05;1.95;;;;;;;;;;5052689;28;20675;-86
2023/08/11 11:03:25;;;;;;;2.85;1.92;;;;;;;;;;5036326;28;20383;-86
2023/08/11 11:05:52;;;;;;;3.42;2.05;;;;;;;;;;5048289;28;20202;-87
2023/08/11 11:08:21;;;;;;;1.90;1.77;;;;;;;;;;5049139;28;20240;-87
2023/08/11 11:10:48;;;;;;;1.80;1.70;;;;;;;;;;5033144;28;20728;-87
2023/08/11 11:13:15;;;;;;;2.42;1.80;;;;;;;;;;5048624;28;20240;-87
2023/08/11 11:15:42;;;;;;;1.95;1.85;;;;;;;;;;5052995;28;20220;-87
2023/08/11 11:18:09;;;;;;;1.80;1.70;;;;;;;;;;5053235;28;20719;-87
2023/08/11 11:20:36;;;;;;;2.60;1.80;;;;;;;;;;5053272;28;20204;-88
2023/08/11 11:23:04;;;;;;;1.92;1.73;;;;;;;;;;5052442;28;20233;-88
2023/08/11 11:25:32;;;;;;;1.90;1.70;;;;;;;;;;5052993;28;20218;-88
2023/08/11 11:27:59;;;;;;;1.80;1.70;;;;;;;;;;5046616;28;20245;-88
2023/08/11 11:30:26;;;;;;;2.97;1.42;;;;;;;;;;5045308;28;20230;-87
2023/08/11 11:32:54;;;;;;;2.22;1.80;;;;;;;;;;5042752;28;20232;-88
2023/08/11 11:35:21;;;;;;;1.95;1.65;;;;;;;;;;5051406;28;20695;-88
2023/08/11 11:37:48;;;;;;;1.80;1.60;;;;;;;;;;5049558;28;20225;-89
2023/08/11 11:40:15;;;;;;;3.63;1.80;;;;;;;;;;5050056;28;20221;-88
2023/08/11 11:42:43;;;;;;;2.75;2.45;;;;;;;;;;5046353;28;20241;-88
2023/08/11 11:45:11;;;;;;;1.90;1.80;;;;;;;;;;5046940;28;20548;-87
2023/08/11 11:47:40;;;;;;;1.73;1.60;;;;;;;;;;5043101;28;20223;-87
2023/08/11 11:50:08;;;;;;;2.40;1.67;;;;;;;;;;5049677;28;20236;-88
2023/08/11 11:52:36;;;;;;;3.03;1.60;;;;;;;;;;5046827;28;20233;-88
2023/08/11 11:55:04;;;;;;;1.58;1.48;;;;;;;;;;5050084;28;20249;-89
2023/08/11 11:57:31;;;;;;;3.13;2.10;;;;;;;;;;5033514;28;20234;-89
2023/08/11 11:59:59;;;;;;;1.70;1.60;;;;;;;;;;5036522;28;20202;-88
2023/08/11 12:02:28;;;;;;;1.80;1.70;;;;;;;;;;5035225;28;20316;-86
2023/08/11 12:04:55;;;;;;;2.28;1.67;;;;;;;;;;5032715;28;20225;-86
2023/08/11 12:07:31;;;;;;;1.65;1.55;;;;;;;;;;5044473;28;20241;-86
2023/08/11 12:09:59;;;;;;;1.95;1.67;;;;;;;;;;5047290;28;20194;-86
2023/08/11 12:12:26;;;;;;;2.80;1.92;;;;;;;;;;5035941;28;20313;-84
2023/08/11 12:14:53;;;;;;;1.50;1.40;;;;;;;;;;5036547;28;20214;-86
2023/08/11 12:17:23;;;;;;;2.83;1.65;;;;;;;;;;5056117;28;20237;-85
2023/08/11 12:19:50;;;;;;;1.70;1.60;;;;;;;;;;5056227;28;20201;-87
2023/08/11 12:22:17;;;;;;;2.00;1.90;;;;;;;;;;5055784;28;20691;-87
2023/08/11 12:24:45;;;;;;;1.70;1.60;;;;;;;;;;5056547;28;20676;-86
2023/08/11 12:27:12;;;;;;;2.15;1.75;;;;;;;;;;5048570;28;20263;-86
2023/08/11 12:29:39;;;;;;;1.70;1.60;;;;;;;;;;5045408;28;20199;-87
2023/08/11 12:32:06;;;;;;;2.33;1.70;;;;;;;;;;5046059;28;20241;-86
2023/08/11 12:34:35;;;;;;;2.13;1.65;;;;;;;;;;5046645;28;20209;-86
2023/08/11 12:37:02;;;;;;;1.75;1.65;;;;;;;;;;5045021;28;20625;-86
2023/08/11 12:39:30;;;;;;;1.90;1.70;;;;;;;;;;5045294;28;20201;-86
2023/08/11 12:41:57;;;;;;;2.75;1.70;;;;;;;;;;5045423;28;20234;-87
2023/08/11 12:44:25;;;;;;;2.92;1.70;;;;;;;;;;5047058;28;20198;-86
2023/08/11 12:46:56;;;;;;;2.65;1.45;;;;;;;;;;5045932;28;20316;-86
2023/08/11 12:49:23;;;;;;;2.75;1.58;;;;;;;;;;5044015;28;20205;-86
2023/08/11 12:51:52;;;;;;;1.50;1.40;;;;;;;;;;5043207;28;20244;-84
2023/08/11 12:54:19;;;;;;;1.75;1.50;;;;;;;;;;5045158;28;20291;-87
2023/08/11 12:56:46;;;;;;;2.10;1.60;;;;;;;;;;5042451;28;20607;-85
2023/08/11 12:59:14;;;;;;;1.67;1.55;;;;;;;;;;5045716;28;20408;-87
2023/08/11 13:01:42;;;;;;;1.65;1.55;;;;;;;;;;5048193;28;20229;-87
2023/08/11 13:04:09;;;;;;;1.58;1.48;;;;;;;;;;5047414;28;20232;-87
2023/08/11 13:06:36;;;;;;;1.45;1.35;;;;;;;;;;5042046;28;20316;-86
2023/08/11 13:09:07;;;;;;;2.72;1.60;;;;;;;;;;5049325;28;20233;-86
2023/08/11 13:11:34;;;;;;;1.60;1.50;;;;;;;;;;5045571;28;20229;-86
2023/08/11 13:14:02;;;;;;;2.53;1.60;;;;;;;;;;5050402;28;20202;-88
2023/08/11 13:16:29;;;;;;;2.08;1.63;;;;;;;;;;5042617;28;20590;-85
2023/08/11 13:18:56;;;;;;;2.50;1.30;;;;;;;;;;5056220;28;20228;-89
2023/08/11 13:21:23;;;;;;;1.55;1.45;;;;;;;;;;5055053;28;20240;-88
2023/08/11 13:23:50;;;;;;;1.58;1.48;;;;;;;;;;5055439;28;20201;-89
2023/08/11 13:26:19;;;;;;;1.60;1.50;;;;;;;;;;5054538;28;20229;-89
2023/08/11 13:28:46;;;;;;;1.65;1.55;;;;;;;;;;5054845;28;20695;-88
2023/08/11 13:31:13;;;;;;;3.80;1.70;;;;;;;;;;5044859;28;20201;-87
2023/08/11 13:33:40;;;;;;;1.60;1.40;;;;;;;;;;5043790;28;20182;-87
2023/08/11 13:36:08;;;;;;;1.60;1.50;;;;;;;;;;5043402;28;20202;-88
2023/08/11 13:38:35;;;;;;;2.58;1.65;;;;;;;;;;5041373;28;20549;-87
2023/08/11 13:41:02;;;;;;;1.88;1.23;;;;;;;;;;5046702;28;20292;-87
2023/08/11 13:43:31;;;;;;;1.75;1.45;;;;;;;;;;5048090;28;20619;-88
2023/08/11 13:45:58;;;;;;;1.20;1.20;;;;;;;;;;5053411;28;20205;-87
2023/08/11 13:48:25;;;;;;;1.25;1.15;;;;;;;;;;5053425;28;20228;-87
2023/08/11 13:50:52;;;;;;;1.17;1.17;;;;;;;;;;5053883;28;20197;-87
2023/08/11 13:53:19;;;;;;;1.40;1.30;;;;;;;;;;5056208;28;20244;-87
2023/08/11 13:55:46;;;;;;;1.52;1.42;;;;;;;;;;5054928;28;20201;-87
2023/08/11 13:58:13;;;;;;;1.23;1.13;;;;;;;;;;5053201;28;20245;-87
2023/08/11 14:00:42;;;;;;;1.38;1.27;;;;;;;;;;5053733;28;20206;-86
2023/08/11 14:03:09;;;;;;;1.10;1.10;;;;;;;;;;5052874;28;20230;-86
2023/08/11 14:05:36;;;;;;;2.53;1.38;;;;;;;;;;5053901;28;20616;-87
2023/08/11 14:08:03;;;;;;;1.17;0.95;;;;;;;;;;5037579;28;20238;-87
2023/08/11 14:10:30;;;;;;;1.02;1.02;;;;;;;;;;5033771;28;20264;-87
2023/08/11 14:12:57;;;;;;;1.45;1.35;;;;;;;;;;5033285;28;20257;-86
2023/08/11 14:15:24;;;;;;;1.23;1.13;;;;;;;;;;5033425;28;20584;-87
2023/08/11 14:17:53;;;;;;;1.83;1.13;;;;;;;;;;5046273;28;20604;-87
2023/08/11 14:20:20;;;;;;;1.00;0.98;;;;;;;;;;5053445;28;20214;-88
2023/08/11 14:22:47;;;;;;;1.13;1.13;;;;;;;;;;5052897;28;20241;-87
2023/08/11 14:25:14;;;;;;;1.33;1.23;;;;;;;;;;5053673;28;20209;-87
2023/08/11 14:27:41;;;;;;;0.93;0.93;;;;;;;;;;5042028;28;20226;-88
2023/08/11 14:30:09;;;;;;;1.02;1.02;;;;;;;;;;5033674;28;20209;-88
2023/08/11 14:32:36;;;;;;;1.42;1.30;;;;;;;;;;5032814;28;20223;-88
2023/08/11 14:35:04;;;;;;;3.72;1.45;;;;;;;;;;5033235;28;20211;-89
2023/08/11 14:37:31;;;;;;;1.17;1.08;;;;;;;;;;5031919;28;20249;-88
2023/08/11 14:39:58;;;;;;;1.30;1.23;;;;;;;;;;5031948;28;20222;-87
2023/08/11 14:42:25;;;;;;;1.00;0.90;;;;;;;;;;5032209;28;20234;-88
2023/08/11 14:44:52;;;;;;;1.10;1.00;;;;;;;;;;5033337;28;20206;-88
2023/08/11 14:47:19;;;;;;;2.90;1.40;;;;;;;;;;5032938;28;20238;-88